Time;durP1;ratioP1;P1;durP2;ratioP2;P2;SDS_P1;SDS_P2;PMS_P1;PMS_P2;Temp;Humidity;BMP_temperature;BMP_pressure;BME280_temperature;BME280_humidity;BME280_pressure;Samples;Min_cycle;Max_cycle;Signal;HPM_P1;HPM_P2
2023/01/16 00:02:13;;;;;;;6.68;2.20;;;;;;;;;;4971406;28;20535;-74
2023/01/16 00:04:39;;;;;;;3.30;2.10;;;;;;;;;;4975785;28;20118;-74
2023/01/16 00:07:05;;;;;;;7.45;2.03;;;;;;;;;;4970432;28;20049;-74
2023/01/16 00:09:31;;;;;;;4.43;1.95;;;;;;;;;;4974866;28;20022;-74
2023/01/16 00:11:57;;;;;;;2.67;1.88;;;;;;;;;;4970298;28;20023;-74
2023/01/16 00:14:24;;;;;;;3.10;1.85;;;;;;;;;;4971249;28;20027;-74
2023/01/16 00:16:50;;;;;;;2.40;1.70;;;;;;;;;;4972509;28;20041;-74
2023/01/16 00:19:16;;;;;;;4.60;1.70;;;;;;;;;;4971544;28;20127;-74
2023/01/16 00:21:43;;;;;;;3.22;2.33;;;;;;;;;;4971628;28;20034;-73
2023/01/16 00:24:10;;;;;;;5.82;2.00;;;;;;;;;;4971534;28;20085;-73
2023/01/16 00:26:36;;;;;;;3.25;1.65;;;;;;;;;;4969700;28;20042;-73
2023/01/16 00:29:02;;;;;;;3.88;2.58;;;;;;;;;;4974408;28;20027;-73
2023/01/16 00:31:28;;;;;;;4.03;2.00;;;;;;;;;;4974321;28;20027;-74
2023/01/16 00:33:54;;;;;;;4.13;1.95;;;;;;;;;;4967037;28;20480;-74
2023/01/16 00:36:21;;;;;;;2.88;1.70;;;;;;;;;;4972611;28;20019;-73
2023/01/16 00:38:47;;;;;;;3.53;1.90;;;;;;;;;;4971602;28;20034;-74
2023/01/16 00:41:13;;;;;;;4.45;1.77;;;;;;;;;;4973219;28;20529;-74
2023/01/16 00:43:39;;;;;;;3.47;1.77;;;;;;;;;;4970664;28;20022;-74
2023/01/16 00:46:05;;;;;;;4.97;1.88;;;;;;;;;;4971797;28;20627;-74
2023/01/16 00:48:32;;;;;;;2.88;1.73;;;;;;;;;;4974866;28;20026;-73
2023/01/16 00:50:58;;;;;;;2.40;1.35;;;;;;;;;;4976600;28;20058;-74
2023/01/16 00:53:24;;;;;;;5.20;2.10;;;;;;;;;;4970354;28;20030;-74
2023/01/16 00:55:53;;;;;;;3.72;1.88;;;;;;;;;;4973239;28;20598;-74
2023/01/16 00:58:19;;;;;;;3.67;1.73;;;;;;;;;;4972796;28;20034;-74
2023/01/16 01:00:45;;;;;;;2.97;1.88;;;;;;;;;;4973838;28;20109;-74
2023/01/16 01:03:12;;;;;;;5.07;2.33;;;;;;;;;;4972409;28;20461;-74
2023/01/16 01:05:38;;;;;;;3.50;1.90;;;;;;;;;;4974384;28;20122;-74
2023/01/16 01:08:05;;;;;;;5.05;2.20;;;;;;;;;;4974497;28;20521;-74
2023/01/16 01:10:31;;;;;;;2.75;1.90;;;;;;;;;;4976236;28;20062;-74
2023/01/16 01:12:57;;;;;;;4.15;2.03;;;;;;;;;;4972040;28;20030;-74
2023/01/16 01:15:24;;;;;;;4.65;1.90;;;;;;;;;;4981450;28;20072;-74
2023/01/16 01:17:50;;;;;;;5.50;2.20;;;;;;;;;;4971806;28;20112;-75
2023/01/16 01:20:16;;;;;;;3.78;2.10;;;;;;;;;;4971924;28;20396;-74
2023/01/16 01:22:44;;;;;;;5.18;1.90;;;;;;;;;;4971626;28;20035;-74
2023/01/16 01:25:11;;;;;;;4.47;2.00;;;;;;;;;;4972788;28;20022;-73
2023/01/16 01:27:37;;;;;;;5.25;2.20;;;;;;;;;;4974235;28;20035;-74
2023/01/16 01:30:03;;;;;;;2.80;2.00;;;;;;;;;;4976163;28;20026;-74
2023/01/16 01:32:29;;;;;;;4.22;2.00;;;;;;;;;;4970916;28;20023;-74
2023/01/16 01:34:55;;;;;;;6.45;2.20;;;;;;;;;;4972587;28;20026;-74
2023/01/16 01:37:21;;;;;;;7.53;2.55;;;;;;;;;;4966949;28;20018;-74
2023/01/16 01:39:48;;;;;;;3.38;1.90;;;;;;;;;;4973864;28;20023;-74
2023/01/16 01:45:15;;;;;;;4.45;2.13;;;;;;;;;;4972709;28;20037;-74
2023/01/16 01:47:44;;;;;;;4.03;2.10;;;;;;;;;;4979336;28;20680;-74
2023/01/16 01:50:30;;;;;;;5.20;2.53;;;;;;;;;;4974523;28;20533;-74
2023/01/16 01:52:59;;;;;;;4.57;2.42;;;;;;;;;;4970524;28;20034;-74
2023/01/16 01:55:25;;;;;;;9.18;2.40;;;;;;;;;;4975714;28;20521;-74
2023/01/16 01:57:56;;;;;;;4.95;2.22;;;;;;;;;;4977356;28;20022;-74
2023/01/16 02:00:24;;;;;;;3.65;2.00;;;;;;;;;;4973969;28;20022;-74
2023/01/16 02:03:02;;;;;;;3.88;1.95;;;;;;;;;;4977260;28;20069;-74
2023/01/16 02:05:31;;;;;;;3.70;2.20;;;;;;;;;;4980877;28;20054;-73
2023/01/16 02:07:58;;;;;;;3.90;2.40;;;;;;;;;;4974985;28;20633;-73
2023/01/16 02:10:37;;;;;;;2.90;1.95;;;;;;;;;;4977619;28;20023;-74
2023/01/16 02:13:04;;;;;;;6.07;2.28;;;;;;;;;;4973371;28;20030;-74
2023/01/16 02:15:30;;;;;;;3.90;2.22;;;;;;;;;;4977597;28;20561;-74
2023/01/16 02:21:02;;;;;;;4.60;2.72;;;;;;;;;;4974685;28;20538;-74
2023/01/16 02:23:47;;;;;;;4.95;2.08;;;;;;;;;;4978976;28;20027;-74
2023/01/16 02:26:31;;;;;;;5.35;1.98;;;;;;;;;;4975275;28;20045;-73
2023/01/16 02:29:06;;;;;;;3.42;2.00;;;;;;;;;;4971110;28;20030;-73
2023/01/16 02:31:35;;;;;;;3.95;2.00;;;;;;;;;;4975166;28;20027;-74
2023/01/16 02:34:01;;;;;;;4.85;2.30;;;;;;;;;;4973390;28;20019;-74
2023/01/16 02:36:34;;;;;;;3.78;2.08;;;;;;;;;;4978593;28;20030;-74
2023/01/16 02:39:06;;;;;;;5.00;2.58;;;;;;;;;;4980520;28;20027;-73
2023/01/16 02:41:41;;;;;;;3.45;2.08;;;;;;;;;;4976116;28;20029;-74
2023/01/16 02:44:26;;;;;;;4.05;2.42;;;;;;;;;;4973540;28;20356;-73
2023/01/16 02:46:59;;;;;;;4.97;2.00;;;;;;;;;;4974492;28;20031;-73
2023/01/16 02:49:40;;;;;;;4.90;1.98;;;;;;;;;;4970389;28;20098;-74
2023/01/16 02:52:14;;;;;;;11.43;3.47;;;;;;;;;;4974115;28;20026;-74
2023/01/16 02:54:41;;;;;;;5.80;3.33;;;;;;;;;;4978746;28;20383;-74
2023/01/16 02:57:08;;;;;;;8.60;3.00;;;;;;;;;;4972298;28;20536;-74
2023/01/16 02:59:35;;;;;;;6.60;2.53;;;;;;;;;;4975291;28;20073;-74
2023/01/16 03:02:03;;;;;;;5.60;2.80;;;;;;;;;;4973683;28;20018;-74
2023/01/16 03:04:43;;;;;;;7.88;3.47;;;;;;;;;;4972717;28;20449;-73
2023/01/16 03:07:15;;;;;;;7.05;2.65;;;;;;;;;;4982310;28;20070;-74
2023/01/16 03:09:41;;;;;;;;;;;;;;;;;;4981968;28;20113;-74
2023/01/16 03:12:10;;;;;;;5.82;2.80;;;;;;;;;;4978971;28;20068;-74
2023/01/16 03:14:47;;;;;;;4.35;2.80;;;;;;;;;;4980881;28;20631;-74
2023/01/16 03:17:32;;;;;;;5.15;2.60;;;;;;;;;;4982660;28;20426;-74
2023/01/16 03:20:09;;;;;;;4.85;2.60;;;;;;;;;;4985365;28;20026;-74
2023/01/16 03:22:54;;;;;;;5.97;2.85;;;;;;;;;;4982339;28;20034;-74
2023/01/16 03:25:24;;;;;;;4.55;2.80;;;;;;;;;;4984181;28;20081;-74
2023/01/16 03:27:50;;;;;;;6.45;2.67;;;;;;;;;;4988152;28;20412;-73
2023/01/16 03:30:23;;;;;;;7.53;2.70;;;;;;;;;;4984685;28;20029;-73
2023/01/16 03:32:58;;;;;;;7.32;2.92;;;;;;;;;;4982730;28;20030;-73
2023/01/16 03:35:33;;;;;;;5.85;2.78;;;;;;;;;;4979797;28;20213;-73
2023/01/16 03:38:05;;;;;;;7.30;3.38;;;;;;;;;;4985208;28;20018;-74
2023/01/16 03:40:33;;;;;;;5.40;3.00;;;;;;;;;;4983519;28;20034;-74
2023/01/16 03:43:19;;;;;;;8.80;2.80;;;;;;;;;;4983794;28;20522;-74
2023/01/16 03:46:07;;;;;;;13.57;3.22;;;;;;;;;;4985078;28;20028;-73
2023/01/16 03:48:43;;;;;;;7.53;3.05;;;;;;;;;;4985543;28;20035;-74
2023/01/16 03:51:11;;;;;;;6.35;3.15;;;;;;;;;;4988063;28;20708;-74
2023/01/16 03:53:45;;;;;;;4.82;2.53;;;;;;;;;;4983533;28;20034;-74
2023/01/16 03:56:20;;;;;;;5.15;2.58;;;;;;;;;;4984723;28;20475;-74
2023/01/16 03:58:48;;;;;;;10.65;3.13;;;;;;;;;;4983791;28;20057;-74
2023/01/16 04:01:33;;;;;;;7.60;3.58;;;;;;;;;;4984090;28;20030;-73
2023/01/16 04:04:03;;;;;;;6.10;2.88;;;;;;;;;;4983670;28;20513;-74
2023/01/16 04:06:35;;;;;;;6.35;3.08;;;;;;;;;;4978980;28;20105;-74
2023/01/16 04:09:04;;;;;;;8.95;2.80;;;;;;;;;;4984345;28;20077;-73
2023/01/16 04:11:30;;;;;;;5.15;2.65;;;;;;;;;;4978790;28;20026;-73
2023/01/16 04:13:57;;;;;;;5.90;2.45;;;;;;;;;;4980288;28;20030;-73
2023/01/16 04:16:24;;;;;;;10.40;2.63;;;;;;;;;;4977273;28;20443;-74
2023/01/16 04:18:50;;;;;;;8.18;2.38;;;;;;;;;;4953170;28;20030;-73
2023/01/16 04:21:17;;;;;;;5.63;2.97;;;;;;;;;;4974634;28;20057;-74
2023/01/16 04:23:43;;;;;;;9.38;2.45;;;;;;;;;;4975563;28;20023;-73
2023/01/16 04:26:09;;;;;;;5.95;2.78;;;;;;;;;;4983806;28;20050;-74
2023/01/16 04:28:36;;;;;;;12.80;3.03;;;;;;;;;;4980550;28;20117;-74
2023/01/16 04:31:02;;;;;;;9.45;3.33;;;;;;;;;;4979478;28;20028;-74
2023/01/16 04:33:28;;;;;;;3.67;2.28;;;;;;;;;;4978202;28;20105;-73
2023/01/16 04:35:54;;;;;;;9.40;2.88;;;;;;;;;;4975581;28;20027;-75
2023/01/16 04:38:20;;;;;;;8.75;2.97;;;;;;;;;;4977988;28;20022;-74
2023/01/16 04:40:46;;;;;;;13.63;3.85;;;;;;;;;;4982337;28;20030;-73
2023/01/16 04:43:12;;;;;;;9.40;3.78;;;;;;;;;;4984308;28;20026;-74
2023/01/16 04:45:40;;;;;;;7.38;2.67;;;;;;;;;;4978925;28;20476;-74
2023/01/16 04:48:06;;;;;;;4.55;2.88;;;;;;;;;;4980515;28;20059;-74
2023/01/16 04:50:32;;;;;;;7.75;2.65;;;;;;;;;;4979891;28;20475;-74
2023/01/16 04:52:59;;;;;;;6.57;3.05;;;;;;;;;;4976548;28;20029;-74
2023/01/16 04:55:25;;;;;;;6.07;2.67;;;;;;;;;;4979148;28;20076;-74
2023/01/16 04:57:51;;;;;;;5.13;2.75;;;;;;;;;;4972569;28;20376;-74
2023/01/16 05:00:17;;;;;;;6.32;3.03;;;;;;;;;;4976755;28;20375;-74
2023/01/16 05:02:43;;;;;;;10.32;2.97;;;;;;;;;;4971949;28;20053;-74
2023/01/16 05:05:10;;;;;;;6.63;2.63;;;;;;;;;;4973828;28;20618;-74
2023/01/16 05:07:36;;;;;;;5.75;2.60;;;;;;;;;;4974645;28;20068;-74
2023/01/16 05:10:03;;;;;;;6.00;2.92;;;;;;;;;;4973835;28;20030;-74
2023/01/16 05:12:29;;;;;;;5.65;3.22;;;;;;;;;;4974121;28;20022;-74
2023/01/16 05:14:55;;;;;;;7.68;2.63;;;;;;;;;;4975055;28;20049;-74
2023/01/16 05:17:24;;;;;;;4.85;2.78;;;;;;;;;;4976808;28;20035;-74
2023/01/16 05:19:51;;;;;;;8.18;3.10;;;;;;;;;;4977630;28;20057;-74
2023/01/16 05:22:17;;;;;;;7.40;2.50;;;;;;;;;;4978217;28;20038;-74
2023/01/16 05:24:43;;;;;;;10.45;3.15;;;;;;;;;;4974296;28;20034;-74
2023/01/16 05:27:09;;;;;;;6.60;2.85;;;;;;;;;;4978651;28;20065;-73
2023/01/16 05:29:35;;;;;;;10.25;3.17;;;;;;;;;;4975452;28;20091;-74
2023/01/16 05:32:01;;;;;;;7.28;2.72;;;;;;;;;;4977058;28;20023;-74
2023/01/16 05:34:28;;;;;;;6.28;3.08;;;;;;;;;;4974732;28;20028;-73
2023/01/16 05:36:54;;;;;;;7.90;2.50;;;;;;;;;;4977289;28;20026;-74
2023/01/16 05:39:20;;;;;;;8.38;2.50;;;;;;;;;;4976796;28;20450;-74
2023/01/16 05:41:46;;;;;;;7.82;3.22;;;;;;;;;;4975374;28;20039;-74
2023/01/16 05:44:12;;;;;;;7.65;3.28;;;;;;;;;;4979480;28;20034;-74
2023/01/16 05:46:38;;;;;;;8.73;3.33;;;;;;;;;;4973861;28;20114;-74
2023/01/16 05:49:04;;;;;;;11.50;3.28;;;;;;;;;;4976224;28;20023;-74
2023/01/16 05:51:31;;;;;;;12.27;3.42;;;;;;;;;;4979154;28;20034;-74
2023/01/16 05:53:57;;;;;;;7.97;2.75;;;;;;;;;;4979098;28;20509;-74
2023/01/16 05:56:23;;;;;;;9.70;3.33;;;;;;;;;;4974952;28;20040;-74
2023/01/16 05:58:49;;;;;;;8.63;3.10;;;;;;;;;;4979845;28;20195;-73
2023/01/16 06:01:16;;;;;;;10.65;3.85;;;;;;;;;;4975786;28;20026;-73
2023/01/16 06:03:42;;;;;;;7.70;3.15;;;;;;;;;;4971469;28;20046;-74
2023/01/16 06:06:08;;;;;;;9.77;4.00;;;;;;;;;;4979482;28;20046;-74
2023/01/16 06:08:34;;;;;;;8.55;3.40;;;;;;;;;;4979596;28;20030;-74
2023/01/16 06:11:00;;;;;;;17.70;5.50;;;;;;;;;;4973780;28;20027;-74
2023/01/16 06:13:26;;;;;;;10.55;3.40;;;;;;;;;;4977410;28;20089;-74
2023/01/16 06:15:53;;;;;;;11.30;3.25;;;;;;;;;;4974860;28;20029;-74
2023/01/16 06:18:19;;;;;;;10.50;3.30;;;;;;;;;;4974305;28;20230;-74
2023/01/16 06:20:45;;;;;;;5.80;2.95;;;;;;;;;;4976595;28;20026;-74
2023/01/16 06:23:11;;;;;;;7.53;3.03;;;;;;;;;;4973307;28;20104;-74
2023/01/16 06:25:37;;;;;;;7.55;3.03;;;;;;;;;;4974857;28;20050;-74
2023/01/16 06:28:03;;;;;;;11.63;3.30;;;;;;;;;;4978040;28;20117;-74
2023/01/16 06:30:30;;;;;;;6.47;2.78;;;;;;;;;;4981069;28;20026;-74
2023/01/16 06:32:56;;;;;;;12.15;4.00;;;;;;;;;;4979245;28;20510;-74
2023/01/16 06:35:22;;;;;;;7.75;3.40;;;;;;;;;;4976450;28;20483;-74
2023/01/16 06:37:48;;;;;;;9.90;3.42;;;;;;;;;;4978154;28;20033;-74
2023/01/16 06:40:14;;;;;;;6.88;2.90;;;;;;;;;;4977669;28;20353;-73
2023/01/16 06:42:40;;;;;;;16.00;3.63;;;;;;;;;;4977497;28;20238;-74
2023/01/16 06:45:07;;;;;;;7.88;3.35;;;;;;;;;;4976117;28;20036;-73
2023/01/16 06:47:33;;;;;;;8.27;3.03;;;;;;;;;;4977039;28;20042;-74
2023/01/16 06:49:59;;;;;;;6.93;2.80;;;;;;;;;;4975295;28;20515;-74
2023/01/16 06:52:25;;;;;;;5.85;2.47;;;;;;;;;;4978809;28;20030;-73
2023/01/16 06:54:51;;;;;;;11.98;2.67;;;;;;;;;;4975723;28;20521;-74
2023/01/16 06:57:17;;;;;;;6.50;3.47;;;;;;;;;;4972651;28;20034;-74
2023/01/16 06:59:44;;;;;;;6.65;3.05;;;;;;;;;;4973639;28;20030;-74
2023/01/16 07:02:10;;;;;;;8.32;2.88;;;;;;;;;;4975499;28;20403;-73
2023/01/16 07:04:36;;;;;;;9.15;2.88;;;;;;;;;;4979078;28;20683;-73
2023/01/16 07:07:02;;;;;;;8.50;2.70;;;;;;;;;;4978366;28;20569;-74
2023/01/16 07:09:29;;;;;;;12.50;3.22;;;;;;;;;;4981266;28;20454;-74
2023/01/16 07:11:55;;;;;;;9.73;3.13;;;;;;;;;;4977901;28;20150;-74
2023/01/16 07:22:38;;;;;;;8.88;3.50;;;;;;;;;;4975609;28;20185;-73
2023/01/16 07:25:07;;;;;;;7.00;2.75;;;;;;;;;;4976194;28;20112;-74
2023/01/16 07:27:33;;;;;;;10.30;3.80;;;;;;;;;;4974993;28;20042;-73
2023/01/16 07:29:59;;;;;;;10.98;3.50;;;;;;;;;;4979231;28;20105;-73
2023/01/16 07:32:25;;;;;;;10.77;3.30;;;;;;;;;;4977418;28;20096;-73
2023/01/16 07:34:52;;;;;;;10.32;3.30;;;;;;;;;;4977230;28;20029;-73
2023/01/16 07:37:18;;;;;;;9.52;3.80;;;;;;;;;;4975082;28;20066;-74
2023/01/16 07:39:44;;;;;;;10.23;3.30;;;;;;;;;;4979129;28;20026;-74
2023/01/16 07:54:28;;;;;;;9.32;3.58;;;;;;;;;;4977425;28;20072;-74
2023/01/16 07:56:54;;;;;;;5.53;2.97;;;;;;;;;;4975348;28;20030;-73
2023/01/16 07:59:20;;;;;;;13.35;3.75;;;;;;;;;;4975639;28;20414;-73
2023/01/16 08:01:46;;;;;;;6.95;2.95;;;;;;;;;;4977437;28;20382;-74
2023/01/16 08:04:13;;;;;;;17.10;3.92;;;;;;;;;;4974727;28;20133;-73
2023/01/16 08:06:44;;;;;;;14.38;3.80;;;;;;;;;;4976041;28;20061;-73
2023/01/16 08:09:10;;;;;;;10.57;3.28;;;;;;;;;;4978631;28;20101;-74
2023/01/16 08:11:38;;;;;;;13.57;3.88;;;;;;;;;;4977223;28;20042;-74
2023/01/16 08:14:05;;;;;;;13.52;4.03;;;;;;;;;;4974730;28;20022;-73
2023/01/16 08:16:31;;;;;;;14.25;3.50;;;;;;;;;;4975264;28;20482;-73
2023/01/16 08:18:57;;;;;;;8.23;3.63;;;;;;;;;;4978395;28;20023;-74
2023/01/16 08:21:23;;;;;;;9.18;3.78;;;;;;;;;;4971190;28;20034;-74
2023/01/16 08:23:50;;;;;;;16.48;4.78;;;;;;;;;;4977788;28;20093;-73
2023/01/16 08:26:16;;;;;;;12.80;4.13;;;;;;;;;;4973107;28;20038;-74
2023/01/16 08:28:42;;;;;;;18.77;4.60;;;;;;;;;;4980238;28;20019;-74
2023/01/16 08:31:11;;;;;;;10.40;4.80;;;;;;;;;;4974687;28;20026;-74
2023/01/16 08:33:38;;;;;;;12.15;4.55;;;;;;;;;;4976829;28;20014;-73
2023/01/16 08:36:05;;;;;;;8.88;3.80;;;;;;;;;;4975739;28;20388;-73
2023/01/16 08:38:31;;;;;;;12.80;4.30;;;;;;;;;;4974285;28;20109;-73
2023/01/16 08:40:58;;;;;;;11.27;4.07;;;;;;;;;;4978153;28;20015;-73
2023/01/16 08:51:50;;;;;;;10.75;4.13;;;;;;;;;;4973633;28;20037;-74
2023/01/16 08:54:16;;;;;;;11.45;4.35;;;;;;;;;;4970678;28;20094;-73
2023/01/16 08:56:42;;;;;;;10.57;4.75;;;;;;;;;;4979276;28;20081;-73
2023/01/16 08:59:10;;;;;;;14.20;4.43;;;;;;;;;;4973399;28;20054;-73
2023/01/16 09:01:37;;;;;;;19.38;4.88;;;;;;;;;;4975228;28;20084;-73
2023/01/16 09:04:03;;;;;;;21.30;6.88;;;;;;;;;;4977987;28;20189;-73
2023/01/16 09:06:29;;;;;;;11.30;4.72;;;;;;;;;;4976806;28;20039;-74
2023/01/16 09:08:55;;;;;;;20.20;5.88;;;;;;;;;;4978599;28;20739;-73
2023/01/16 09:14:06;;;;;;;16.20;5.22;;;;;;;;;;4976281;28;20041;-73
2023/01/16 09:16:32;;;;;;;13.18;5.60;;;;;;;;;;4975525;28;20078;-73
2023/01/16 09:18:58;;;;;;;11.98;5.72;;;;;;;;;;4976907;28;20018;-73
2023/01/16 09:21:24;;;;;;;8.23;4.40;;;;;;;;;;4973773;28;20109;-73
2023/01/16 09:23:51;;;;;;;12.52;4.43;;;;;;;;;;4976088;28;20054;-73
2023/01/16 09:26:18;;;;;;;6.35;3.35;;;;;;;;;;4972839;28;20043;-73
2023/01/16 09:28:44;;;;;;;7.03;3.83;;;;;;;;;;4977336;28;20105;-73
2023/01/16 09:31:10;;;;;;;10.55;3.28;;;;;;;;;;4974731;28;20556;-73
2023/01/16 09:33:41;;;;;;;7.30;3.60;;;;;;;;;;4976185;28;20038;-73
2023/01/16 09:36:07;;;;;;;7.95;3.22;;;;;;;;;;4977452;28;20014;-72
2023/01/16 09:38:33;;;;;;;6.57;2.88;;;;;;;;;;4972326;28;20035;-72
2023/01/16 09:40:59;;;;;;;8.05;3.30;;;;;;;;;;4975952;28;20019;-72
2023/01/16 09:43:38;;;;;;;7.93;3.35;;;;;;;;;;4973952;28;20058;-72
2023/01/16 09:46:11;;;;;;;6.13;3.13;;;;;;;;;;4973495;28;20019;-73
2023/01/16 09:48:41;;;;;;;8.02;3.42;;;;;;;;;;4974942;28;20170;-73
2023/01/16 09:51:11;;;;;;;11.45;3.88;;;;;;;;;;4977484;28;20018;-72
2023/01/16 09:59:29;;;;;;;6.85;3.15;;;;;;;;;;4970818;28;20033;-72
2023/01/16 10:02:08;;;;;;;6.43;2.83;;;;;;;;;;4982958;28;20022;-72
2023/01/16 10:04:35;;;;;;;8.45;2.90;;;;;;;;;;4974272;28;20688;-72
2023/01/16 10:07:20;;;;;;;8.30;2.63;;;;;;;;;;4982964;28;20066;-72
2023/01/16 10:09:46;;;;;;;6.22;2.63;;;;;;;;;;4980039;28;20030;-72
2023/01/16 10:12:14;;;;;;;12.90;3.40;;;;;;;;;;4979393;28;20117;-72
2023/01/16 10:14:44;;;;;;;5.93;3.13;;;;;;;;;;4979121;28;20092;-72
2023/01/16 10:17:19;;;;;;;9.35;3.45;;;;;;;;;;4975373;28;20019;-72
2023/01/16 10:19:46;;;;;;;6.45;3.30;;;;;;;;;;4978656;28;20023;-72
2023/01/16 10:22:29;;;;;;;5.40;3.42;;;;;;;;;;4979641;28;20037;-72
2023/01/16 10:24:55;;;;;;;5.97;3.40;;;;;;;;;;4981205;28;20117;-72
2023/01/16 10:27:27;;;;;;;9.02;3.22;;;;;;;;;;4979656;28;20141;-72
2023/01/16 10:29:56;;;;;;;11.25;3.90;;;;;;;;;;4977722;28;20512;-72
2023/01/16 10:32:34;;;;;;;7.07;3.42;;;;;;;;;;4977955;28;20487;-72
2023/01/16 10:35:19;;;;;;;14.90;4.60;;;;;;;;;;4975739;28;20691;-72
2023/01/16 10:37:46;;;;;;;9.23;3.88;;;;;;;;;;4981953;28;20043;-72
2023/01/16 10:40:28;;;;;;;8.13;3.80;;;;;;;;;;4974948;28;20478;-73
2023/01/16 10:51:37;;;;;;;5.57;3.30;;;;;;;;;;4978536;28;20442;-73
2023/01/16 10:54:03;;;;;;;8.52;3.63;;;;;;;;;;4975945;28;20517;-72
2023/01/16 10:56:32;;;;;;;5.88;2.90;;;;;;;;;;4977677;28;20454;-72
2023/01/16 10:58:58;;;;;;;9.35;3.85;;;;;;;;;;4979566;28;20073;-72
2023/01/16 11:01:25;;;;;;;6.07;3.63;;;;;;;;;;4978874;28;20101;-72
2023/01/16 11:03:57;;;;;;;9.88;3.60;;;;;;;;;;4978804;28;20054;-72
2023/01/16 11:06:25;;;;;;;8.32;4.32;;;;;;;;;;4979241;28;20038;-72
2023/01/16 11:09:05;;;;;;;9.35;3.75;;;;;;;;;;4984048;28;20025;-72
2023/01/16 11:20:07;;;;;;;6.88;2.75;;;;;;;;;;4981803;28;20084;-73
2023/01/16 11:22:36;;;;;;;8.95;2.97;;;;;;;;;;4982630;28;20041;-72
2023/01/16 11:25:04;;;;;;;4.82;2.78;;;;;;;;;;4979270;28;20092;-73
2023/01/16 11:27:32;;;;;;;10.27;4.13;;;;;;;;;;4981331;28;20386;-73
2023/01/16 11:29:58;;;;;;;5.57;3.78;;;;;;;;;;4980556;28;20038;-72
2023/01/16 11:32:28;;;;;;;5.70;3.30;;;;;;;;;;4980661;28;20467;-72
2023/01/16 11:34:55;;;;;;;9.45;3.35;;;;;;;;;;4979710;28;20026;-72
2023/01/16 11:37:22;;;;;;;7.70;3.50;;;;;;;;;;4978240;28;20635;-73
2023/01/16 11:39:51;;;;;;;8.00;3.42;;;;;;;;;;4980696;28;20940;-72
2023/01/16 11:48:22;;;;;;;7.35;3.25;;;;;;;;;;4981654;28;20089;-72
2023/01/16 11:50:53;;;;;;;9.45;3.28;;;;;;;;;;4978540;28;20031;-73
2023/01/16 11:53:19;;;;;;;10.32;3.58;;;;;;;;;;4979046;28;20048;-72
2023/01/16 11:56:01;;;;;;;8.60;3.40;;;;;;;;;;4978600;28;20080;-72
2023/01/16 11:58:27;;;;;;;;;;;;;;;;;;4979402;28;20030;-73
2023/01/16 12:00:53;;;;;;;6.65;3.45;;;;;;;;;;4981997;28;20734;-73
2023/01/16 12:03:38;;;;;;;12.20;3.20;;;;;;;;;;4976338;28;20042;-72
2023/01/16 12:06:23;;;;;;;9.30;3.42;;;;;;;;;;4980640;28;20132;-72
2023/01/16 12:09:08;;;;;;;6.15;2.63;;;;;;;;;;4978931;28;20031;-72
2023/01/16 12:11:34;;;;;;;5.40;2.75;;;;;;;;;;4978116;28;20022;-73
2023/01/16 12:14:18;;;;;;;8.65;2.97;;;;;;;;;;4980136;28;20030;-73
2023/01/16 12:16:58;;;;;;;9.35;3.05;;;;;;;;;;4977091;28;20025;-73
2023/01/16 12:19:24;;;;;;;8.35;3.08;;;;;;;;;;4982597;28;20037;-72
2023/01/16 12:21:54;;;;;;;4.20;2.78;;;;;;;;;;4978344;28;20141;-72
2023/01/16 12:24:43;;;;;;;7.00;2.78;;;;;;;;;;4975571;28;20018;-73
2023/01/16 12:27:17;;;;;;;9.98;2.80;;;;;;;;;;4973201;28;20046;-73
2023/01/16 12:29:55;;;;;;;6.78;2.25;;;;;;;;;;4977968;28;20144;-73
2023/01/16 12:32:48;;;;;;;5.28;2.92;;;;;;;;;;4982330;28;20029;-72
2023/01/16 12:35:14;;;;;;;5.60;2.38;;;;;;;;;;4975700;28;20034;-73
2023/01/16 12:37:53;;;;;;;9.35;2.85;;;;;;;;;;4978136;28;20037;-73
2023/01/16 12:40:34;;;;;;;6.13;2.45;;;;;;;;;;4977890;28;20018;-73
2023/01/16 12:43:20;;;;;;;6.43;2.28;;;;;;;;;;4980836;28;20029;-73
2023/01/16 12:45:56;;;;;;;6.32;2.20;;;;;;;;;;4975528;28;20054;-73
2023/01/16 12:48:22;;;;;;;4.88;1.95;;;;;;;;;;4982358;28;20041;-72
2023/01/16 12:51:01;;;;;;;6.38;2.38;;;;;;;;;;4976803;28;20479;-72
2023/01/16 12:53:47;;;;;;;5.03;1.73;;;;;;;;;;4977479;28;20034;-73
2023/01/16 12:56:36;;;;;;;7.10;2.35;;;;;;;;;;4962253;28;20038;-73
2023/01/16 12:59:16;;;;;;;5.57;2.05;;;;;;;;;;4960314;28;20057;-72
2023/01/16 13:01:45;;;;;;;11.27;2.40;;;;;;;;;;4977921;28;20734;-72
2023/01/16 13:04:27;;;;;;;5.22;2.00;;;;;;;;;;4979274;28;20052;-73
2023/01/16 13:06:55;;;;;;;6.68;2.22;;;;;;;;;;4976192;28;20046;-73
2023/01/16 13:09:40;;;;;;;5.25;2.15;;;;;;;;;;4979983;28;20027;-73
2023/01/16 13:15:02;;;;;;;6.63;2.72;;;;;;;;;;4981514;28;20088;-72
2023/01/16 13:17:38;;;;;;;8.13;2.50;;;;;;;;;;4977490;28;20029;-72
2023/01/16 13:20:04;;;;;;;7.18;2.72;;;;;;;;;;4977461;28;20414;-72
2023/01/16 13:22:36;;;;;;;6.72;2.58;;;;;;;;;;4979678;28;20023;-73
2023/01/16 13:25:07;;;;;;;7.47;2.42;;;;;;;;;;4977758;28;20027;-73
2023/01/16 13:27:47;;;;;;;8.43;2.10;;;;;;;;;;4981430;28;20434;-72
2023/01/16 13:30:14;;;;;;;9.15;2.92;;;;;;;;;;4980448;28;20110;-72
2023/01/16 13:32:42;;;;;;;6.40;2.15;;;;;;;;;;4979430;28;20031;-72
2023/01/16 13:35:27;;;;;;;6.47;2.50;;;;;;;;;;4976667;28;20019;-72
2023/01/16 13:37:54;;;;;;;6.25;2.65;;;;;;;;;;4980889;28;20430;-73
2023/01/16 13:40:28;;;;;;;9.50;2.70;;;;;;;;;;4979605;28;20015;-72
2023/01/16 13:45:49;;;;;;;6.80;2.60;;;;;;;;;;4981078;28;20113;-73
2023/01/16 13:48:36;;;;;;;8.52;2.78;;;;;;;;;;4984553;28;20050;-72
2023/01/16 13:51:10;;;;;;;8.07;3.30;;;;;;;;;;4978512;28;20023;-73
2023/01/16 13:53:39;;;;;;;9.10;3.40;;;;;;;;;;4986295;28;20033;-72
2023/01/16 13:56:08;;;;;;;5.50;3.03;;;;;;;;;;4979352;28;20150;-72
2023/01/16 13:58:38;;;;;;;7.18;2.95;;;;;;;;;;4985510;28;20069;-72
2023/01/16 14:01:06;;;;;;;7.68;3.58;;;;;;;;;;4976792;28;20099;-73
2023/01/16 14:03:33;;;;;;;9.65;3.28;;;;;;;;;;4984720;28;20042;-72
2023/01/16 14:06:19;;;;;;;8.05;3.47;;;;;;;;;;4979422;28;20026;-72
2023/01/16 14:09:04;;;;;;;9.02;3.17;;;;;;;;;;4981759;28;20034;-73
2023/01/16 14:11:36;;;;;;;8.15;3.13;;;;;;;;;;4984158;28;20450;-72
2023/01/16 14:16:30;;;;;;;8.90;2.90;;;;;;;;;;4981816;28;20860;-72
2023/01/16 14:17:08;;;;;;;12.02;3.20;;;;;;;;;;4975700;28;20145;-73
2023/01/16 14:19:53;;;;;;;7.07;2.80;;;;;;;;;;4979764;28;20588;-73
2023/01/16 14:24:52;;;;;;;6.05;2.60;;;;;;;;;;4980431;28;20600;-73
2023/01/16 14:27:20;;;;;;;10.32;2.85;;;;;;;;;;4970381;28;20148;-74
2023/01/16 14:29:52;;;;;;;6.55;3.22;;;;;;;;;;4977451;28;20034;-75
2023/01/16 14:32:19;;;;;;;7.65;2.55;;;;;;;;;;4974035;28;20031;-74
2023/01/16 14:34:45;;;;;;;7.72;2.65;;;;;;;;;;4977966;28;20292;-74
2023/01/16 14:37:15;;;;;;;6.78;3.05;;;;;;;;;;4970338;28;20038;-74
2023/01/16 14:39:49;;;;;;;11.38;2.70;;;;;;;;;;4972921;28;20026;-73
2023/01/16 14:56:40;;;;;;;4.80;1.98;;;;;;;;;;4968202;28;20042;-74
2023/01/16 14:59:12;;;;;;;5.70;2.10;;;;;;;;;;4972324;28;20027;-74
2023/01/16 15:04:30;;;;;;;4.78;2.03;;;;;;;;;;4979013;28;20152;-74
2023/01/16 15:06:58;;;;;;;10.18;2.55;;;;;;;;;;4973701;28;20027;-74
2023/01/16 15:09:27;;;;;;;5.15;2.08;;;;;;;;;;4975191;28;20030;-74
2023/01/16 15:11:53;;;;;;;13.23;3.70;;;;;;;;;;4974790;28;20114;-74
2023/01/16 15:14:27;;;;;;;6.57;1.80;;;;;;;;;;4976358;28;20613;-74
2023/01/16 15:22:43;;;;;;;5.43;2.47;;;;;;;;;;4972095;28;20565;-74
2023/01/16 15:25:16;;;;;;;6.93;1.70;;;;;;;;;;4972083;28;20031;-74
2023/01/16 15:27:43;;;;;;;7.95;2.00;;;;;;;;;;4972004;28;20038;-74
2023/01/16 15:30:17;;;;;;;5.63;1.50;;;;;;;;;;4971331;28;20027;-73
2023/01/16 15:33:43;;;;;;;7.43;1.83;;;;;;;;;;4971817;28;20058;-73
2023/01/16 15:35:43;;;;;;;7.72;2.00;;;;;;;;;;4973125;28;20026;-73
2023/01/16 15:38:11;;;;;;;5.70;1.80;;;;;;;;;;4972638;28;20037;-74
2023/01/16 15:40:37;;;;;;;4.90;1.90;;;;;;;;;;4974595;28;20053;-74
2023/01/16 15:49:06;;;;;;;7.93;2.42;;;;;;;;;;4970541;28;20590;-74
2023/01/16 15:51:33;;;;;;;6.88;2.45;;;;;;;;;;4975492;28;20542;-74
2023/01/16 15:54:00;;;;;;;8.98;2.17;;;;;;;;;;4973890;28;20026;-74
2023/01/16 15:56:41;;;;;;;4.80;2.08;;;;;;;;;;4969246;28;20117;-75
2023/01/16 15:59:28;;;;;;;6.15;2.15;;;;;;;;;;4974235;28;20258;-74
2023/01/16 16:01:54;;;;;;;7.85;2.47;;;;;;;;;;4973775;28;20030;-74
2023/01/16 16:04:23;;;;;;;7.30;1.92;;;;;;;;;;4972976;28;20038;-74
2023/01/16 16:06:49;;;;;;;8.13;2.55;;;;;;;;;;4971711;28;20038;-74
2023/01/16 16:09:20;;;;;;;7.60;2.30;;;;;;;;;;4977647;28;20022;-74
2023/01/16 16:11:54;;;;;;;5.32;1.85;;;;;;;;;;4973847;28;20034;-74
2023/01/16 16:20:30;;;;;;;8.88;2.00;;;;;;;;;;4974051;28;20129;-74
2023/01/16 16:23:00;;;;;;;5.80;1.73;;;;;;;;;;4971611;28;20061;-73
2023/01/16 16:25:35;;;;;;;4.18;1.52;;;;;;;;;;4970289;28;20031;-74
2023/01/16 16:28:03;;;;;;;6.93;1.98;;;;;;;;;;4974618;28;20042;-74
2023/01/16 16:30:29;;;;;;;6.40;1.65;;;;;;;;;;4974492;28;20369;-74
2023/01/16 16:32:56;;;;;;;8.32;2.65;;;;;;;;;;4978993;28;20034;-73
2023/01/16 16:35:35;;;;;;;7.38;1.70;;;;;;;;;;4972240;28;20047;-74
2023/01/16 16:38:01;;;;;;;5.35;1.52;;;;;;;;;;4969832;28;20109;-74
2023/01/16 16:40:28;;;;;;;10.80;2.05;;;;;;;;;;4972571;28;20517;-75
2023/01/16 16:42:56;;;;;;;5.22;1.42;;;;;;;;;;4974512;28;20094;-74
2023/01/16 16:45:25;;;;;;;7.82;1.50;;;;;;;;;;4974229;28;20019;-74
2023/01/16 16:48:09;;;;;;;4.78;1.40;;;;;;;;;;4969350;28;20045;-74